sensor_id;sensor_type;location;lat;lon;timestamp;pressure;altitude;pressure_sealevel;temperature;humidity
20228;BME280;12195;55.790;37.572;2022-12-18T00:01:58;99359.05;;;-1.82;84.34
20228;BME280;12195;55.790;37.572;2022-12-18T00:04:30;99336.73;;;-1.83;84.31
20228;BME280;12195;55.790;37.572;2022-12-18T00:07:02;99335.06;;;-1.87;84.33
20228;BME280;12195;55.790;37.572;2022-12-18T00:09:35;99329.92;;;-1.87;84.41
20228;BME280;12195;55.790;37.572;2022-12-18T00:12:09;99328.17;;;-1.82;84.58
20228;BME280;12195;55.790;37.572;2022-12-18T00:14:44;99308.57;;;-1.93;84.40
20228;BME280;12195;55.790;37.572;2022-12-18T00:17:16;99310.30;;;-1.92;84.43
20228;BME280;12195;55.790;37.572;2022-12-18T00:19:49;99314.55;;;-1.90;84.54
20228;BME280;12195;55.790;37.572;2022-12-18T00:22:21;99310.20;;;-1.85;84.67
20228;BME280;12195;55.790;37.572;2022-12-18T00:24:53;99302.53;;;-1.91;84.57
20228;BME280;12195;55.790;37.572;2022-12-18T00:27:25;99297.38;;;-1.89;84.60
20228;BME280;12195;55.790;37.572;2022-12-18T00:29:57;99291.33;;;-1.85;84.71
20228;BME280;12195;55.790;37.572;2022-12-18T00:32:33;99279.36;;;-1.88;84.64
20228;BME280;12195;55.790;37.572;2022-12-18T00:35:06;99281.88;;;-1.82;84.84
20228;BME280;12195;55.790;37.572;2022-12-18T00:37:38;99273.31;;;-1.84;84.91
20228;BME280;12195;55.790;37.572;2022-12-18T00:40:11;99272.41;;;-1.80;85.02
20228;BME280;12195;55.790;37.572;2022-12-18T00:42:43;99276.79;;;-1.88;84.89
20228;BME280;12195;55.790;37.572;2022-12-18T00:45:29;99271.73;;;-1.94;84.79
20228;BME280;12195;55.790;37.572;2022-12-18T00:48:01;99274.14;;;-1.80;85.01
20228;BME280;12195;55.790;37.572;2022-12-18T00:50:33;99272.41;;;-1.80;85.35
20228;BME280;12195;55.790;37.572;2022-12-18T00:53:06;99259.75;;;-1.95;84.72
20228;BME280;12195;55.790;37.572;2022-12-18T00:55:41;99252.83;;;-1.90;84.92
20228;BME280;12195;55.790;37.572;2022-12-18T00:58:15;99265.62;;;-1.87;85.07
20228;BME280;12195;55.790;37.572;2022-12-18T01:00:47;99251.17;;;-1.95;84.99
20228;BME280;12195;55.790;37.572;2022-12-18T01:03:19;99248.38;;;-1.79;85.45
20228;BME280;12195;55.790;37.572;2022-12-18T01:05:51;99234.80;;;-1.88;84.92
20228;BME280;12195;55.790;37.572;2022-12-18T01:08:23;99234.05;;;-1.96;84.91
20228;BME280;12195;55.790;37.572;2022-12-18T01:10:55;99224.61;;;-1.97;84.90
20228;BME280;12195;55.790;37.572;2022-12-18T01:13:28;99227.16;;;-1.96;85.01
20228;BME280;12195;55.790;37.572;2022-12-18T01:16:00;99218.55;;;-1.92;85.27
20228;BME280;12195;55.790;37.572;2022-12-18T01:18:32;99215.97;;;-1.92;85.33
20228;BME280;12195;55.790;37.572;2022-12-18T01:21:13;99218.56;;;-1.93;85.39
20228;BME280;12195;55.790;37.572;2022-12-18T01:23:46;99203.11;;;-1.92;85.47
20228;BME280;12195;55.790;37.572;2022-12-18T01:26:18;99203.23;;;-2.01;85.24
20228;BME280;12195;55.790;37.572;2022-12-18T01:28:51;99199.75;;;-1.97;85.25
20228;BME280;12195;55.790;37.572;2022-12-18T01:31:25;99196.41;;;-2.02;85.21
20228;BME280;12195;55.790;37.572;2022-12-18T01:33:57;99210.66;;;-1.80;85.69
20228;BME280;12195;55.790;37.572;2022-12-18T01:36:33;99209.15;;;-1.94;85.14
20228;BME280;12195;55.790;37.572;2022-12-18T01:39:09;99206.66;;;-1.99;85.14
20228;BME280;12195;55.790;37.572;2022-12-18T01:41:42;99211.83;;;-2.02;85.24
20228;BME280;12195;55.790;37.572;2022-12-18T01:50:28;99201.55;;;-2.02;85.59
20228;BME280;12195;55.790;37.572;2022-12-18T01:53:06;99195.70;;;-2.16;85.19
20228;BME280;12195;55.790;37.572;2022-12-18T01:55:52;99201.67;;;-2.11;85.40
20228;BME280;12195;55.790;37.572;2022-12-18T01:58:35;99202.48;;;-2.09;85.50
20228;BME280;12195;55.790;37.572;2022-12-18T02:01:06;99202.52;;;-2.12;85.43
20228;BME280;12195;55.790;37.572;2022-12-18T02:03:41;99210.95;;;-2.01;85.72
20228;BME280;12195;55.790;37.572;2022-12-18T02:06:16;99187.16;;;-2.16;85.51
20228;BME280;12195;55.790;37.572;2022-12-18T02:09:09;99198.25;;;-2.13;85.46
20228;BME280;12195;55.790;37.572;2022-12-18T02:17:20;99195.91;;;-2.31;84.93
20228;BME280;12195;55.790;37.572;2022-12-18T02:20:03;99201.80;;;-2.21;85.19
20228;BME280;12195;55.790;37.572;2022-12-18T02:28:16;99224.10;;;-2.25;85.32
20228;BME280;12195;55.790;37.572;2022-12-18T02:30:51;99219.05;;;-2.31;85.29
20228;BME280;12195;55.790;37.572;2022-12-18T02:33:26;99224.20;;;-2.32;85.20
20228;BME280;12195;55.790;37.572;2022-12-18T02:35:59;99204.53;;;-2.35;85.19
20228;BME280;12195;55.790;37.572;2022-12-18T02:38:34;99202.77;;;-2.33;85.24
20228;BME280;12195;55.790;37.572;2022-12-18T02:41:08;99202.84;;;-2.36;85.19
20228;BME280;12195;55.790;37.572;2022-12-18T02:43:46;99202.86;;;-2.39;85.16
20228;BME280;12195;55.790;37.572;2022-12-18T02:46:25;99211.39;;;-2.37;85.21
20228;BME280;12195;55.790;37.572;2022-12-18T02:51:55;99207.09;;;-2.33;85.30
20228;BME280;12195;55.790;37.572;2022-12-18T02:57:33;99209.55;;;-2.26;85.47
20228;BME280;12195;55.790;37.572;2022-12-18T03:00:21;99207.10;;;-2.35;85.48
20228;BME280;12195;55.790;37.572;2022-12-18T03:03:02;99207.14;;;-2.39;85.24
20228;BME280;12195;55.790;37.572;2022-12-18T03:08:17;99203.68;;;-2.37;85.42
20228;BME280;12195;55.790;37.572;2022-12-18T03:10:55;99210.63;;;-2.45;85.21
20228;BME280;12195;55.790;37.572;2022-12-18T03:13:35;99196.84;;;-2.38;85.28
20228;BME280;12195;55.790;37.572;2022-12-18T03:16:11;99186.59;;;-2.41;85.25
20228;BME280;12195;55.790;37.572;2022-12-18T03:18:54;99185.77;;;-2.41;85.28
20228;BME280;12195;55.790;37.572;2022-12-18T03:21:26;99197.72;;;-2.39;85.26
20228;BME280;12195;55.790;37.572;2022-12-18T03:23:57;99207.91;;;-2.33;85.28
20228;BME280;12195;55.790;37.572;2022-12-18T03:26:30;99209.81;;;-2.48;84.89
20228;BME280;12195;55.790;37.572;2022-12-18T03:29:07;99184.14;;;-2.50;84.77
20228;BME280;12195;55.790;37.572;2022-12-18T03:31:40;99184.14;;;-2.50;84.77
20228;BME280;12195;55.790;37.572;2022-12-18T03:34:15;99205.56;;;-2.51;84.94
20228;BME280;12195;55.790;37.572;2022-12-18T03:36:48;99208.14;;;-2.51;84.97
20228;BME280;12195;55.790;37.572;2022-12-18T03:39:21;99210.81;;;-2.60;84.82
20228;BME280;12195;55.790;37.572;2022-12-18T03:42:05;99212.41;;;-2.51;84.95
20228;BME280;12195;55.790;37.572;2022-12-18T03:47:23;99221.02;;;-2.55;84.85
20228;BME280;12195;55.790;37.572;2022-12-18T03:50:18;99208.13;;;-2.49;85.06
20228;BME280;12195;55.790;37.572;2022-12-18T03:55:44;99203.02;;;-2.54;84.64
20228;BME280;12195;55.790;37.572;2022-12-18T03:58:23;99205.66;;;-2.58;84.65
20228;BME280;12195;55.790;37.572;2022-12-18T04:01:01;99201.42;;;-2.62;84.64
20228;BME280;12195;55.790;37.572;2022-12-18T04:03:34;99204.80;;;-2.60;84.82
20228;BME280;12195;55.790;37.572;2022-12-18T04:06:07;99200.55;;;-2.61;84.93
20228;BME280;12195;55.790;37.572;2022-12-18T04:08:40;99214.94;;;-2.47;85.18
20228;BME280;12195;55.790;37.572;2022-12-18T04:11:14;99202.98;;;-2.49;84.68
20228;BME280;12195;55.790;37.572;2022-12-18T04:13:47;99205.59;;;-2.54;84.68
20228;BME280;12195;55.790;37.572;2022-12-18T04:16:21;99191.22;;;-2.71;84.57
20228;BME280;12195;55.790;37.572;2022-12-18T04:18:55;99199.80;;;-2.72;84.61
20228;BME280;12195;55.790;37.572;2022-12-18T04:21:27;99217.78;;;-2.74;84.49
20228;BME280;12195;55.790;37.572;2022-12-18T04:23:59;99216.91;;;-2.73;84.64
20228;BME280;12195;55.790;37.572;2022-12-18T04:26:32;99223.70;;;-2.66;84.80
20228;BME280;12195;55.790;37.572;2022-12-18T04:29:18;99224.62;;;-2.73;84.78
20228;BME280;12195;55.790;37.572;2022-12-18T04:31:50;99252.92;;;-2.76;84.68
20228;BME280;12195;55.790;37.572;2022-12-18T04:34:23;99256.29;;;-2.71;84.84
20228;BME280;12195;55.790;37.572;2022-12-18T04:36:56;99257.19;;;-2.76;84.63
20228;BME280;12195;55.790;37.572;2022-12-18T04:39:29;99272.59;;;-2.75;84.66
20228;BME280;12195;55.790;37.572;2022-12-18T04:42:02;99273.39;;;-2.68;84.92
20228;BME280;12195;55.790;37.572;2022-12-18T04:44:37;99280.17;;;-2.60;84.62
20228;BME280;12195;55.790;37.572;2022-12-18T04:47:09;99272.48;;;-2.63;84.80
20228;BME280;12195;55.790;37.572;2022-12-18T04:49:41;99271.63;;;-2.63;84.88
20228;BME280;12195;55.790;37.572;2022-12-18T04:52:13;99285.41;;;-2.70;84.63
20228;BME280;12195;55.790;37.572;2022-12-18T04:54:45;99293.92;;;-2.65;84.85
20228;BME280;12195;55.790;37.572;2022-12-18T04:57:17;99307.59;;;-2.65;84.75
20228;BME280;12195;55.790;37.572;2022-12-18T04:59:49;99296.53;;;-2.73;84.63
20228;BME280;12195;55.790;37.572;2022-12-18T05:02:22;99310.27;;;-2.77;84.50
20228;BME280;12195;55.790;37.572;2022-12-18T05:04:54;99290.59;;;-2.78;84.49
20228;BME280;12195;55.790;37.572;2022-12-18T05:07:27;99277.80;;;-2.81;84.36
20228;BME280;12195;55.790;37.572;2022-12-18T05:09:59;99281.20;;;-2.82;84.26
20228;BME280;12195;55.790;37.572;2022-12-18T05:12:32;99290.59;;;-2.79;84.15
20228;BME280;12195;55.790;37.572;2022-12-18T05:15:06;99281.01;;;-2.61;84.59
20228;BME280;12195;55.790;37.572;2022-12-18T05:17:38;99298.17;;;-2.63;84.44
20228;BME280;12195;55.790;37.572;2022-12-18T05:20:11;99287.14;;;-2.75;84.26
20228;BME280;12195;55.790;37.572;2022-12-18T05:22:44;99292.34;;;-2.81;84.05
20228;BME280;12195;55.790;37.572;2022-12-18T05:25:16;99287.13;;;-2.74;84.13
20228;BME280;12195;55.790;37.572;2022-12-18T05:27:50;99297.41;;;-2.74;84.23
20228;BME280;12195;55.790;37.572;2022-12-18T05:30:22;99314.58;;;-2.80;84.18
20228;BME280;12195;55.790;37.572;2022-12-18T05:32:54;99324.86;;;-2.80;84.26
20228;BME280;12195;55.790;37.572;2022-12-18T05:35:26;99304.30;;;-2.79;84.33
20228;BME280;12195;55.790;37.572;2022-12-18T05:37:59;99317.16;;;-2.83;84.21
20228;BME280;12195;55.790;37.572;2022-12-18T05:40:32;99329.97;;;-2.76;84.31
20228;BME280;12195;55.790;37.572;2022-12-18T05:43:05;99343.55;;;-2.63;84.30
20228;BME280;12195;55.790;37.572;2022-12-18T05:45:38;99333.41;;;-2.78;84.16
20228;BME280;12195;55.790;37.572;2022-12-18T05:48:11;99351.33;;;-2.71;84.33
20228;BME280;12195;55.790;37.572;2022-12-18T05:50:44;99346.20;;;-2.74;84.29
20228;BME280;12195;55.790;37.572;2022-12-18T05:53:20;99367.55;;;-2.66;84.49
20228;BME280;12195;55.790;37.572;2022-12-18T05:55:52;99359.91;;;-2.72;84.40
20228;BME280;12195;55.790;37.572;2022-12-18T05:58:24;99382.93;;;-2.60;84.53
20228;BME280;12195;55.790;37.572;2022-12-18T06:00:56;99374.44;;;-2.69;84.34
20228;BME280;12195;55.790;37.572;2022-12-18T06:03:29;99382.17;;;-2.77;84.23
20228;BME280;12195;55.790;37.572;2022-12-18T06:06:03;99366.00;;;-2.85;83.97
20228;BME280;12195;55.790;37.572;2022-12-18T06:08:35;99374.55;;;-2.87;83.76
20228;BME280;12195;55.790;37.572;2022-12-18T06:11:08;99381.43;;;-2.91;83.71
20228;BME280;12195;55.790;37.572;2022-12-18T06:13:40;99377.97;;;-2.84;83.71
20228;BME280;12195;55.790;37.572;2022-12-18T06:16:12;99378.80;;;-2.82;83.77
20228;BME280;12195;55.790;37.572;2022-12-18T06:18:45;99383.97;;;-2.85;83.52
20228;BME280;12195;55.790;37.572;2022-12-18T06:21:17;99378.84;;;-2.88;83.43
20228;BME280;12195;55.790;37.572;2022-12-18T06:23:49;99390.83;;;-2.88;83.30
20228;BME280;12195;55.790;37.572;2022-12-18T06:26:21;99396.83;;;-2.91;83.28
20228;BME280;12195;55.790;37.572;2022-12-18T06:28:55;99407.05;;;-2.83;83.53
20228;BME280;12195;55.790;37.572;2022-12-18T06:31:28;99400.19;;;-2.78;83.52
20228;BME280;12195;55.790;37.572;2022-12-18T06:34:03;99404.48;;;-2.83;83.36
20228;BME280;12195;55.790;37.572;2022-12-18T06:36:35;99419.88;;;-2.79;83.42
20228;BME280;12195;55.790;37.572;2022-12-18T06:39:08;99412.97;;;-2.71;83.57
20228;BME280;12195;55.790;37.572;2022-12-18T06:41:40;99417.95;;;-2.50;83.95
20228;BME280;12195;55.790;37.572;2022-12-18T06:44:12;99410.38;;;-2.66;83.33
20228;BME280;12195;55.790;37.572;2022-12-18T06:46:44;99426.61;;;-2.63;83.39
20228;BME280;12195;55.790;37.572;2022-12-18T06:49:16;99453.94;;;-2.54;83.74
20228;BME280;12195;55.790;37.572;2022-12-18T06:51:49;99439.55;;;-2.76;83.35
20228;BME280;12195;55.790;37.572;2022-12-18T06:54:21;99463.45;;;-2.62;83.66
20228;BME280;12195;55.790;37.572;2022-12-18T06:56:57;99475.42;;;-2.63;83.66
20228;BME280;12195;55.790;37.572;2022-12-18T06:59:29;99463.45;;;-2.64;83.40
20228;BME280;12195;55.790;37.572;2022-12-18T07:02:01;99477.92;;;-2.51;83.44
20228;BME280;12195;55.790;37.572;2022-12-18T07:04:34;99466.02;;;-2.64;83.03
20228;BME280;12195;55.790;37.572;2022-12-18T07:07:06;99473.80;;;-2.76;82.76
20228;BME280;12195;55.790;37.572;2022-12-18T07:09:38;99488.28;;;-2.66;82.75
20228;BME280;12195;55.790;37.572;2022-12-18T07:12:10;99490.77;;;-2.51;82.94
20228;BME280;12195;55.790;37.572;2022-12-18T07:14:43;99488.20;;;-2.54;82.60
20228;BME280;12195;55.790;37.572;2022-12-18T07:17:15;99482.83;;;-2.21;82.55
20228;BME280;12195;55.790;37.572;2022-12-18T07:19:48;99472.53;;;-2.16;82.00
20228;BME280;12195;55.790;37.572;2022-12-18T07:22:20;99468.27;;;-2.19;81.32
20228;BME280;12195;55.790;37.572;2022-12-18T07:24:52;99486.97;;;-2.00;81.64
20228;BME280;12195;55.790;37.572;2022-12-18T07:27:24;99488.84;;;-2.22;80.95
20228;BME280;12195;55.790;37.572;2022-12-18T07:29:56;99488.84;;;-2.22;80.95
20228;BME280;12195;55.790;37.572;2022-12-18T07:32:29;99510.99;;;-2.03;81.58
20228;BME280;12195;55.790;37.572;2022-12-18T07:35:01;99540.89;;;-1.90;81.59
20228;BME280;12195;55.790;37.572;2022-12-18T07:37:32;99520.44;;;-2.08;80.76
20228;BME280;12195;55.790;37.572;2022-12-18T07:40:05;99540.97;;;-2.00;80.95
20228;BME280;12195;55.790;37.572;2022-12-18T07:42:37;99554.57;;;-1.86;81.26
20228;BME280;12195;55.790;37.572;2022-12-18T07:45:09;99541.78;;;-1.95;80.98
20228;BME280;12195;55.790;37.572;2022-12-18T07:47:41;99534.02;;;-1.91;80.95
20228;BME280;12195;55.790;37.572;2022-12-18T07:50:14;99540.09;;;-1.96;81.04
20228;BME280;12195;55.790;37.572;2022-12-18T07:52:45;99535.91;;;-2.11;80.80
20228;BME280;12195;55.790;37.572;2022-12-18T07:55:17;99529.09;;;-2.18;81.13
20228;BME280;12195;55.790;37.572;2022-12-18T07:57:49;99524.86;;;-2.26;81.05
20228;BME280;12195;55.790;37.572;2022-12-18T08:00:23;99529.23;;;-2.36;81.17
20228;BME280;12195;55.790;37.572;2022-12-18T08:02:55;99531.89;;;-2.54;81.47
20228;BME280;12195;55.790;37.572;2022-12-18T08:05:28;99554.06;;;-2.35;82.39
20228;BME280;12195;55.790;37.572;2022-12-18T08:08:00;99542.95;;;-2.40;82.19
20228;BME280;12195;55.790;37.572;2022-12-18T08:10:32;99549.73;;;-2.28;82.27
20228;BME280;12195;55.790;37.572;2022-12-18T08:13:04;99555.70;;;-2.26;82.22
20228;BME280;12195;55.790;37.572;2022-12-18T08:15:36;99549.61;;;-2.12;82.38
20228;BME280;12195;55.790;37.572;2022-12-18T08:18:08;99553.11;;;-2.22;82.09
20228;BME280;12195;55.790;37.572;2022-12-18T08:20:43;99559.95;;;-2.18;81.86
20228;BME280;12195;55.790;37.572;2022-12-18T08:23:15;99577.00;;;-2.08;81.89
20228;BME280;12195;55.790;37.572;2022-12-18T08:25:48;99579.56;;;-2.05;81.82
20228;BME280;12195;55.790;37.572;2022-12-18T08:28:20;99609.48;;;-1.92;82.05
20228;BME280;12195;55.790;37.572;2022-12-18T08:30:53;99611.24;;;-2.00;81.59
20228;BME280;12195;55.790;37.572;2022-12-18T08:33:25;99606.16;;;-2.09;81.53
20228;BME280;12195;55.790;37.572;2022-12-18T08:35:59;99620.71;;;-2.05;81.57
20228;BME280;12195;55.790;37.572;2022-12-18T08:38:34;99619.73;;;-1.84;82.12
20228;BME280;12195;55.790;37.572;2022-12-18T08:41:16;99610.28;;;-1.84;82.14
20228;BME280;12195;55.790;37.572;2022-12-18T08:43:41;99615.48;;;-1.91;81.80
20228;BME280;12195;55.790;37.572;2022-12-18T08:46:41;99616.31;;;-1.89;82.03
20228;BME280;12195;55.790;37.572;2022-12-18T08:49:07;99632.68;;;-1.98;81.84
20228;BME280;12195;55.790;37.572;2022-12-18T08:51:40;99625.86;;;-2.06;81.85
20228;BME280;12195;55.790;37.572;2022-12-18T08:54:12;99634.45;;;-2.10;82.12
20228;BME280;12195;55.790;37.572;2022-12-18T08:56:47;99629.30;;;-2.09;82.31
20228;BME280;12195;55.790;37.572;2022-12-18T08:59:20;99614.81;;;-2.19;82.19
20228;BME280;12195;55.790;37.572;2022-12-18T09:01:55;99629.41;;;-2.25;82.44
20228;BME280;12195;55.790;37.572;2022-12-18T09:04:28;99627.67;;;-2.23;82.43
20228;BME280;12195;55.790;37.572;2022-12-18T09:07:00;99627.66;;;-2.19;82.43
20228;BME280;12195;55.790;37.572;2022-12-18T09:09:32;99631.06;;;-2.17;82.39
20228;BME280;12195;55.790;37.572;2022-12-18T09:12:04;99633.64;;;-2.20;82.28
20228;BME280;12195;55.790;37.572;2022-12-18T09:14:36;99641.40;;;-2.26;82.51
20228;BME280;12195;55.790;37.572;2022-12-18T09:17:08;99632.83;;;-2.28;82.62
20228;BME280;12195;55.790;37.572;2022-12-18T09:19:40;99636.27;;;-2.29;82.57
20228;BME280;12195;55.790;37.572;2022-12-18T09:22:12;99646.53;;;-2.21;82.74
20228;BME280;12195;55.790;37.572;2022-12-18T09:24:44;99643.09;;;-2.19;82.88
20228;BME280;12195;55.790;37.572;2022-12-18T09:27:16;99642.23;;;-2.24;82.75
20228;BME280;12195;55.790;37.572;2022-12-18T09:29:48;99661.09;;;-2.25;82.75
20228;BME280;12195;55.790;37.572;2022-12-18T09:32:20;99663.61;;;-2.13;83.02
20228;BME280;12195;55.790;37.572;2022-12-18T09:34:52;99668.75;;;-2.13;83.01
20228;BME280;12195;55.790;37.572;2022-12-18T09:37:25;99674.77;;;-2.15;83.03
20228;BME280;12195;55.790;37.572;2022-12-18T09:39:57;99673.07;;;-2.19;83.03
20228;BME280;12195;55.790;37.572;2022-12-18T09:42:30;99673.88;;;-2.08;83.01
20228;BME280;12195;55.790;37.572;2022-12-18T09:45:03;99703.00;;;-2.05;83.10
20228;BME280;12195;55.790;37.572;2022-12-18T09:47:38;99698.73;;;-2.09;83.03
20228;BME280;12195;55.790;37.572;2022-12-18T09:53:06;99709.83;;;-1.98;83.43
20228;BME280;12195;55.790;37.572;2022-12-18T09:55:43;99713.28;;;-2.02;83.25
20228;BME280;12195;55.790;37.572;2022-12-18T09:58:41;99717.61;;;-2.13;83.17
20228;BME280;12195;55.790;37.572;2022-12-18T10:01:18;99703.09;;;-2.21;83.15
20228;BME280;12195;55.790;37.572;2022-12-18T10:03:53;99702.22;;;-2.20;83.23
20228;BME280;12195;55.790;37.572;2022-12-18T10:06:46;99721.01;;;-2.09;83.52
20228;BME280;12195;55.790;37.572;2022-12-18T10:17:51;99729.64;;;-2.24;83.57
20228;BME280;12195;55.790;37.572;2022-12-18T10:20:44;99720.17;;;-2.07;83.87
20228;BME280;12195;55.790;37.572;2022-12-18T10:23:32;99728.77;;;-2.15;83.78
20228;BME280;12195;55.790;37.572;2022-12-18T10:26:06;99725.36;;;-2.17;83.99
20228;BME280;12195;55.790;37.572;2022-12-18T10:28:39;99729.54;;;-1.97;83.71
20228;BME280;12195;55.790;37.572;2022-12-18T10:31:19;99730.31;;;-1.81;83.14
20228;BME280;12195;55.790;37.572;2022-12-18T10:33:56;99726.97;;;-1.97;82.82
20228;BME280;12195;55.790;37.572;2022-12-18T10:36:28;99722.70;;;-2.05;82.52
20228;BME280;12195;55.790;37.572;2022-12-18T10:39:23;99726.19;;;-2.17;82.58
20228;BME280;12195;55.790;37.572;2022-12-18T10:41:38;99721.91;;;-2.15;82.42
20228;BME280;12195;55.790;37.572;2022-12-18T10:44:20;99744.23;;;-2.26;82.12
20228;BME280;12195;55.790;37.572;2022-12-18T10:46:54;99754.55;;;-2.33;81.32
20228;BME280;12195;55.790;37.572;2022-12-18T10:49:30;99734.02;;;-2.48;81.15
20228;BME280;12195;55.790;37.572;2022-12-18T10:52:31;99745.12;;;-2.43;81.08
20228;BME280;12195;55.790;37.572;2022-12-18T10:54:52;99765.71;;;-2.55;81.25
20228;BME280;12195;55.790;37.572;2022-12-18T11:00:21;99764.02;;;-2.70;81.15
20228;BME280;12195;55.790;37.572;2022-12-18T11:02:56;99764.88;;;-2.71;81.34
20228;BME280;12195;55.790;37.572;2022-12-18T11:05:31;99773.44;;;-2.78;81.29
20228;BME280;12195;55.790;37.572;2022-12-18T11:08:03;99791.42;;;-2.76;81.36
20228;BME280;12195;55.790;37.572;2022-12-18T11:10:38;99788.88;;;-2.82;81.67
20228;BME280;12195;55.790;37.572;2022-12-18T11:13:20;99837.66;;;-2.69;81.98
20228;BME280;12195;55.790;37.572;2022-12-18T11:15:52;99791.43;;;-2.75;81.92
20228;BME280;12195;55.790;37.572;2022-12-18T11:18:28;99811.98;;;-2.75;81.96
20228;BME280;12195;55.790;37.572;2022-12-18T11:21:08;99809.42;;;-2.84;82.11
20228;BME280;12195;55.790;37.572;2022-12-18T11:23:51;99820.55;;;-2.79;82.33
20228;BME280;12195;55.790;37.572;2022-12-18T11:26:33;99805.97;;;-2.65;82.56
20228;BME280;12195;55.790;37.572;2022-12-18T11:29:12;99801.70;;;-2.48;82.63
20228;BME280;12195;55.790;37.572;2022-12-18T11:31:43;99804.23;;;-2.42;82.81
20228;BME280;12195;55.790;37.572;2022-12-18T11:34:34;99812.80;;;-2.35;83.00
20228;BME280;12195;55.790;37.572;2022-12-18T11:37:01;99807.67;;;-2.41;82.79
20228;BME280;12195;55.790;37.572;2022-12-18T11:39:44;99807.66;;;-2.50;82.71
20228;BME280;12195;55.790;37.572;2022-12-18T11:48:05;99825.67;;;-2.55;83.14
20228;BME280;12195;55.790;37.572;2022-12-18T11:50:51;99820.52;;;-2.59;82.85
20228;BME280;12195;55.790;37.572;2022-12-18T11:53:22;99829.09;;;-2.65;82.60
20228;BME280;12195;55.790;37.572;2022-12-18T11:59:00;99835.95;;;-2.77;82.38
20228;BME280;12195;55.790;37.572;2022-12-18T12:01:48;99852.22;;;-2.81;82.49
20228;BME280;12195;55.790;37.572;2022-12-18T12:07:45;99877.06;;;-2.85;82.56
20228;BME280;12195;55.790;37.572;2022-12-18T12:13:29;99877.88;;;-2.96;82.34
20228;BME280;12195;55.790;37.572;2022-12-18T12:16:17;99901.84;;;-2.99;82.34
20228;BME280;12195;55.790;37.572;2022-12-18T12:22:04;99895.83;;;-3.05;82.41
20228;BME280;12195;55.790;37.572;2022-12-18T12:25:02;99898.41;;;-3.05;82.34
20228;BME280;12195;55.790;37.572;2022-12-18T12:27:46;99907.83;;;-3.01;82.55
20228;BME280;12195;55.790;37.572;2022-12-18T12:31:17;99918.95;;;-2.98;82.52
20228;BME280;12195;55.790;37.572;2022-12-18T12:33:24;99947.20;;;-2.96;82.56
20228;BME280;12195;55.790;37.572;2022-12-18T12:35:58;99931.79;;;-3.04;82.42
20228;BME280;12195;55.790;37.572;2022-12-18T12:38:54;99930.03;;;-3.14;82.43
20228;BME280;12195;55.790;37.572;2022-12-18T12:41:14;99931.75;;;-3.10;82.43
20228;BME280;12195;55.790;37.572;2022-12-18T12:44:08;99937.75;;;-3.15;82.56
20228;BME280;12195;55.790;37.572;2022-12-18T12:46:42;99957.42;;;-3.16;82.67
20228;BME280;12195;55.790;37.572;2022-12-18T12:49:18;99941.16;;;-3.19;82.67
20228;BME280;12195;55.790;37.572;2022-12-18T12:52:00;99945.47;;;-3.08;82.76
20228;BME280;12195;55.790;37.572;2022-12-18T12:54:35;99954.87;;;-3.13;82.85
20228;BME280;12195;55.790;37.572;2022-12-18T12:57:37;99962.55;;;-3.16;82.74
20228;BME280;12195;55.790;37.572;2022-12-18T13:00:10;99965.98;;;-3.17;82.71
20228;BME280;12195;55.790;37.572;2022-12-18T13:03:01;99982.27;;;-3.09;82.68
20228;BME280;12195;55.790;37.572;2022-12-18T13:05:52;99981.41;;;-3.08;82.71
20228;BME280;12195;55.790;37.572;2022-12-18T13:08:28;99989.96;;;-3.06;82.76
20228;BME280;12195;55.790;37.572;2022-12-18T13:11:00;99994.22;;;-3.12;82.64
20228;BME280;12195;55.790;37.572;2022-12-18T13:13:53;100001.06;;;-3.16;82.62
20228;BME280;12195;55.790;37.572;2022-12-18T13:16:26;100017.31;;;-3.14;82.67
20228;BME280;12195;55.790;37.572;2022-12-18T13:18:59;100017.31;;;-3.14;82.72
20228;BME280;12195;55.790;37.572;2022-12-18T13:21:33;100028.52;;;-3.00;82.93
20228;BME280;12195;55.790;37.572;2022-12-18T13:24:15;100025.09;;;-2.99;82.47
20228;BME280;12195;55.790;37.572;2022-12-18T13:26:48;100045.62;;;-3.00;82.47
20228;BME280;12195;55.790;37.572;2022-12-18T13:29:43;100034.47;;;-3.07;82.44
20228;BME280;12195;55.790;37.572;2022-12-18T13:32:21;100045.62;;;-3.05;82.53
20228;BME280;12195;55.790;37.572;2022-12-18T13:37:53;100046.43;;;-3.12;82.36
20228;BME280;12195;55.790;37.572;2022-12-18T13:43:33;100059.28;;;-3.10;82.60
20228;BME280;12195;55.790;37.572;2022-12-18T13:46:02;100067.88;;;-3.02;82.56
20228;BME280;12195;55.790;37.572;2022-12-18T13:48:37;100073.81;;;-3.11;82.55
20228;BME280;12195;55.790;37.572;2022-12-18T13:51:11;100072.09;;;-3.13;82.69
20228;BME280;12195;55.790;37.572;2022-12-18T13:53:48;100087.53;;;-3.06;82.82
20228;BME280;12195;55.790;37.572;2022-12-18T13:56:30;100087.58;;;-3.00;82.88
20228;BME280;12195;55.790;37.572;2022-12-18T13:59:17;100103.00;;;-2.94;82.91
20228;BME280;12195;55.790;37.572;2022-12-18T14:01:59;100093.62;;;-2.92;82.67
20228;BME280;12195;55.790;37.572;2022-12-18T14:04:36;100109.90;;;-2.87;82.71
20228;BME280;12195;55.790;37.572;2022-12-18T14:07:13;100113.29;;;-2.92;82.61
20228;BME280;12195;55.790;37.572;2022-12-18T14:09:50;100108.13;;;-2.98;82.41
20228;BME280;12195;55.790;37.572;2022-12-18T14:12:26;100114.10;;;-3.02;82.63
20228;BME280;12195;55.790;37.572;2022-12-18T14:20:52;100133.81;;;-2.95;82.77
20228;BME280;12195;55.790;37.572;2022-12-18T14:26:27;100137.22;;;-2.98;82.71
20228;BME280;12195;55.790;37.572;2022-12-18T14:29:27;100149.21;;;-3.00;82.57
20228;BME280;12195;55.790;37.572;2022-12-18T14:31:35;100168.12;;;-2.89;82.47
20228;BME280;12195;55.790;37.572;2022-12-18T14:34:15;100174.91;;;-2.98;82.01
20228;BME280;12195;55.790;37.572;2022-12-18T14:36:54;100167.14;;;-3.07;81.92
20228;BME280;12195;55.790;37.572;2022-12-18T14:39:27;100173.12;;;-3.07;82.04
20228;BME280;12195;55.790;37.572;2022-12-18T14:42:00;100189.34;;;-3.11;81.93
20228;BME280;12195;55.790;37.572;2022-12-18T14:44:33;100179.91;;;-3.15;81.81
20228;BME280;12195;55.790;37.572;2022-12-18T14:47:13;100186.81;;;-3.08;81.67
20228;BME280;12195;55.790;37.572;2022-12-18T14:49:43;100202.20;;;-3.09;81.74